Time;durP1;ratioP1;P1;durP2;ratioP2;P2;SDS_P1;SDS_P2;PMS_P1;PMS_P2;Temp;Humidity;BMP_temperature;BMP_pressure;BME280_temperature;BME280_humidity;BME280_pressure;Samples;Min_cycle;Max_cycle;Signal;HPM_P1;HPM_P2
2022/06/20 00:03:41;;;;;;;;;;;;;;;;;;5144125;27;20442;-78
2022/06/20 00:06:07;;;;;;;;;;;;;;;;;;5148879;27;19974;-78
2022/06/20 00:08:33;;;;;;;;;;;;;;;;;;5149020;27;19923;-78
2022/06/20 00:10:59;;;;;;;;;;;;;;;;;;5149053;27;19971;-78
2022/06/20 00:13:25;;;;;;;;;;;;;;;;;;5158939;27;19945;-78
2022/06/20 00:15:51;;;;;;;;;;;;;;;;;;5149025;27;19923;-78
2022/06/20 00:18:17;;;;;;;;;;;;;;;;;;5148748;27;19935;-78
2022/06/20 00:20:42;;;;;;;;;;;;;;;;;;5148371;27;19928;-78
2022/06/20 00:23:08;;;;;;;;;;;;;;;;;;5162059;27;20014;-78
2022/06/20 00:25:34;;;;;;;;;;;;;;;;;;5148931;27;19924;-78
2022/06/20 00:28:00;;;;;;;;;;;;;;;;;;5146022;27;19981;-78
2022/06/20 00:30:26;;;;;;;;;;;;;;;;;;5148412;27;19923;-78
2022/06/20 00:32:52;;;;;;;;;;;;;;;;;;5148403;27;19924;-78
2022/06/20 00:35:18;;;;;;;;;;;;;;;;;;5129921;27;19971;-78
2022/06/20 00:37:44;;;;;;;;;;;;;;;;;;5148334;27;19930;-78
2022/06/20 00:40:10;;;;;;;;;;;;;;;;;;5148381;27;20021;-78
2022/06/20 00:42:36;;;;;;;;;;;;;;;;;;5144432;27;19935;-78
2022/06/20 00:45:02;;;;;;;;;;;;;;;;;;5148427;27;19976;-78
2022/06/20 00:47:28;;;;;;;;;;;;;;;;;;5129700;27;19938;-78
2022/06/20 00:49:54;;;;;;;;;;;;;;;;;;5148335;27;19944;-78
2022/06/20 00:52:20;;;;;;;;;;;;;;;;;;5150119;27;20022;-78
2022/06/20 00:54:46;;;;;;;;;;;;;;;;;;5148215;27;19923;-79
2022/06/20 00:57:12;;;;;;;;;;;;;;;;;;5146003;27;20006;-78
2022/06/20 00:59:37;;;;;;;;;;;;;;;;;;5147280;27;19923;-78
2022/06/20 01:02:06;;;;;;;;;;;;;;;;;;5150300;27;19923;-78
2022/06/20 01:04:32;;;;;;;;;;;;;;;;;;5147815;27;19930;-79
2022/06/20 01:06:58;;;;;;;;;;;;;;;;;;5148024;27;19923;-79
2022/06/20 01:09:24;;;;;;;;;;;;;;;;;;5147776;27;19923;-79
2022/06/20 01:11:50;;;;;;;;;;;;;;;;;;5147493;27;19931;-79
2022/06/20 01:14:16;;;;;;;;;;;;;;;;;;5136093;27;19924;-79
2022/06/20 01:16:43;;;;;;;;;;;;;;;;;;5145836;27;19969;-79
2022/06/20 01:19:09;;;;;;;;;;;;;;;;;;5147716;27;19927;-78
2022/06/20 01:21:35;;;;;;;;;;;;;;;;;;5147306;27;19968;-75
2022/06/20 01:24:01;;;;;;;;;;;;;;;;;;5158077;27;19963;-79
2022/06/20 01:26:27;;;;;;;;;;;;;;;;;;5147541;27;19924;-79
2022/06/20 01:28:53;;;;;;;;;;;;;;;;;;5129079;27;19923;-79
2022/06/20 01:31:20;;;;;;;;;;;;;;;;;;5149111;27;19927;-79
2022/06/20 01:33:46;;;;;;;;;;;;;;;;;;5148482;27;20322;-79
2022/06/20 01:38:57;;;;;;;;;;;;;;;;;;5157299;27;19946;-79
2022/06/20 01:44:07;;;;;;;;;;;;;;;;;;5147024;27;19930;-79
2022/06/20 01:46:33;;;;;;;;;;;;;;;;;;5145564;27;19923;-79
2022/06/20 01:48:59;;;;;;;;;;;;;;;;;;5139970;27;19927;-78
2022/06/20 01:51:25;;;;;;;;;;;;;;;;;;5146537;27;19942;-79
2022/06/20 01:53:51;;;;;;;;;;;;;;;;;;5146857;27;19923;-78
2022/06/20 01:56:17;;;;;;;;;;;;;;;;;;5147135;27;20018;-79
2022/06/20 01:58:44;;;;;;;;;;;;;;;;;;5145495;27;19923;-79
2022/06/20 02:01:10;;;;;;;;;;;;;;;;;;5114020;27;19930;-79
2022/06/20 02:03:36;;;;;;;;;;;;;;;;;;5128076;27;20393;-79
2022/06/20 02:06:02;;;;;;;;;;;;;;;;;;5146852;27;19967;-78
2022/06/20 02:08:28;;;;;;;;;;;;;;;;;;5145908;27;19927;-78
2022/06/20 02:10:54;;;;;;;;;;;;;;;;;;5146566;27;19943;-78
2022/06/20 02:13:20;;;;;;;;;;;;;;;;;;5143558;27;19924;-78
2022/06/20 02:15:46;;;;;;;;;;;;;;;;;;5146754;27;19924;-79
2022/06/20 02:18:12;;;;;;;;;;;;;;;;;;5151575;27;19940;-78
2022/06/20 02:20:38;;;;;;;;;;;;;;;;;;5146770;27;19923;-78
2022/06/20 02:23:04;;;;;;;;;;;;;;;;;;5146348;27;19924;-78
2022/06/20 02:25:30;;;;;;;;;;;;;;;;;;5127885;27;20405;-78
2022/06/20 02:27:56;;;;;;;;;;;;;;;;;;5148833;27;19945;-78
2022/06/20 02:30:22;;;;;;;;;;;;;;;;;;5147955;27;20442;-78
2022/06/20 02:32:48;;;;;;;;;;;;;;;;;;5146469;27;19923;-78
2022/06/20 02:35:14;;;;;;;;;;;;;;;;;;5146043;27;20018;-78
2022/06/20 02:37:40;;;;;;;;;;;;;;;;;;5145276;27;19923;-78
2022/06/20 02:40:06;;;;;;;;;;;;;;;;;;5146296;27;19927;-78
2022/06/20 02:42:32;;;;;;;;;;;;;;;;;;5143654;27;19924;-78
2022/06/20 02:44:58;;;;;;;;;;;;;;;;;;5146219;27;19962;-79
2022/06/20 02:47:24;;;;;;;;;;;;;;;;;;5162368;27;19926;-79
2022/06/20 02:49:50;;;;;;;;;;;;;;;;;;5130884;28;19934;-79
2022/06/20 02:52:16;;;;;;;;;;;;;;;;;;5146085;28;19935;-78
2022/06/20 02:54:42;;;;;;;;;;;;;;;;;;5143777;28;19923;-79
2022/06/20 02:57:08;;;;;;;;;;;;;;;;;;5121154;28;19970;-77
2022/06/20 02:59:34;;;;;;;;;;;;;;;;;;5158565;27;19923;-78
2022/06/20 03:02:02;;;;;;;;;;;;;;;;;;5151840;27;19928;-77
2022/06/20 03:04:29;;;;;;;;;;;;;;;;;;5145450;28;19924;-77
2022/06/20 03:06:55;;;;;;;;;;;;;;;;;;5145871;28;19951;-77
2022/06/20 03:09:21;;;;;;;;;;;;;;;;;;5145625;27;19923;-77
2022/06/20 03:11:47;;;;;;;;;;;;;;;;;;5144205;28;19958;-77
2022/06/20 03:14:13;;;;;;;;;;;;;;;;;;5146182;28;19970;-77
2022/06/20 03:16:41;;;;;;;;;;;;;;;;;;5145944;28;19926;-77
2022/06/20 03:19:07;;;;;;;;;;;;;;;;;;5147693;27;19923;-78
2022/06/20 03:21:33;;;;;;;;;;;;;;;;;;5145239;28;19931;-77
2022/06/20 03:23:59;;;;;;;;;;;;;;;;;;5145805;28;19970;-77
2022/06/20 03:26:25;;;;;;;;;;;;;;;;;;5145720;28;20526;-76
2022/06/20 03:28:51;;;;;;;;;;;;;;;;;;5145128;27;19969;-77
2022/06/20 03:31:17;;;;;;;;;;;;;;;;;;5145154;28;20398;-77
2022/06/20 03:33:43;;;;;;;;;;;;;;;;;;5145499;28;19927;-77
2022/06/20 03:36:09;;;;;;;;;;;;;;;;;;5145659;28;19978;-77
2022/06/20 03:38:35;;;;;;;;;;;;;;;;;;5149654;27;19923;-77
2022/06/20 03:41:01;;;;;;;;;;;;;;;;;;5154065;27;19931;-77
2022/06/20 03:43:27;;;;;;;;;;;;;;;;;;5150465;27;19927;-76
2022/06/20 03:45:53;;;;;;;;;;;;;;;;;;5145263;28;19945;-76
2022/06/20 03:48:19;;;;;;;;;;;;;;;;;;5151341;27;19934;-76
2022/06/20 03:50:44;;;;;;;;;;;;;;;;;;5145118;27;19924;-76
2022/06/20 03:53:10;;;;;;;;;;;;;;;;;;5145481;28;19927;-76
2022/06/20 03:55:36;;;;;;;;;;;;;;;;;;5146921;27;19926;-76
2022/06/20 03:58:02;;;;;;;;;;;;;;;;;;5152691;27;20438;-76
2022/06/20 04:00:28;;;;;;;;;;;;;;;;;;5154861;27;19924;-76
2022/06/20 04:02:54;;;;;;;;;;;;;;;;;;5148922;27;20298;-76
2022/06/20 04:05:20;;;;;;;;;;;;;;;;;;5145417;27;19979;-76
2022/06/20 04:07:46;;;;;;;;;;;;;;;;;;5158969;27;20290;-76
2022/06/20 04:12:57;;;;;;;;;;;;;;;;;;5149064;27;20289;-77
2022/06/20 04:15:23;;;;;;;;;;;;;;;;;;5147047;27;19924;-76
2022/06/20 04:20:33;;;;;;;;;;;;;;;;;;5141948;27;20015;-76
2022/06/20 04:22:59;;;;;;;;;;;;;;;;;;5147565;27;19927;-77
2022/06/20 04:25:25;;;;;;;;;;;;;;;;;;5149055;27;20466;-77
2022/06/20 04:27:51;;;;;;;;;;;;;;;;;;5148055;27;19924;-77
2022/06/20 04:30:17;;;;;;;;;;;;;;;;;;5128415;27;19959;-78
2022/06/20 04:32:43;;;;;;;;;;;;;;;;;;5139288;27;20033;-77
2022/06/20 04:35:09;;;;;;;;;;;;;;;;;;5139314;27;19928;-77
2022/06/20 04:37:35;;;;;;;;;;;;;;;;;;5142067;27;19923;-78
2022/06/20 04:40:01;;;;;;;;;;;;;;;;;;5148655;27;19923;-77
2022/06/20 04:42:27;;;;;;;;;;;;;;;;;;5148609;27;19939;-77
2022/06/20 04:44:53;;;;;;;;;;;;;;;;;;5125321;27;19933;-77
2022/06/20 04:47:19;;;;;;;;;;;;;;;;;;5148357;27;19927;-77
2022/06/20 04:49:45;;;;;;;;;;;;;;;;;;5128680;27;20022;-77
2022/06/20 04:52:11;;;;;;;;;;;;;;;;;;5143652;27;19928;-77
2022/06/20 04:54:37;;;;;;;;;;;;;;;;;;5144925;27;19939;-77
2022/06/20 04:57:03;;;;;;;;;;;;;;;;;;5147922;27;19974;-77
2022/06/20 04:59:29;;;;;;;;;;;;;;;;;;5148199;27;20396;-77
2022/06/20 05:01:54;;;;;;;;;;;;;;;;;;5158856;27;19923;-77
2022/06/20 05:04:21;;;;;;;;;;;;;;;;;;5148003;27;20010;-78
2022/06/20 05:06:48;;;;;;;;;;;;;;;;;;5147699;27;19923;-77
2022/06/20 05:09:14;;;;;;;;;;;;;;;;;;5146679;27;19924;-78
2022/06/20 05:11:40;;;;;;;;;;;;;;;;;;5136050;27;19929;-78
2022/06/20 05:14:06;;;;;;;;;;;;;;;;;;5153357;27;19934;-78
2022/06/20 05:16:32;;;;;;;;;;;;;;;;;;5147861;27;19931;-78
2022/06/20 05:18:58;;;;;;;;;;;;;;;;;;5129111;27;19930;-78
2022/06/20 05:21:24;;;;;;;;;;;;;;;;;;5147517;27;19924;-78
2022/06/20 05:23:50;;;;;;;;;;;;;;;;;;5128910;27;20035;-78
2022/06/20 05:26:16;;;;;;;;;;;;;;;;;;5147613;27;19976;-78
2022/06/20 05:28:42;;;;;;;;;;;;;;;;;;5147836;27;19980;-78
2022/06/20 05:31:08;;;;;;;;;;;;;;;;;;5148851;27;19927;-78
2022/06/20 05:33:33;;;;;;;;;;;;;;;;;;5147395;27;19924;-78
2022/06/20 05:35:59;;;;;;;;;;;;;;;;;;5147401;27;19935;-78
2022/06/20 05:38:26;;;;;;;;;;;;;;;;;;5149412;27;19991;-78
2022/06/20 05:40:52;;;;;;;;;;;;;;;;;;5147369;27;20010;-78
2022/06/20 05:43:21;;;;;;;;;;;;;;;;;;5146984;27;20401;-78
2022/06/20 05:45:47;;;;;;;;;;;;;;;;;;5147232;27;20018;-78
2022/06/20 05:48:13;;;;;;;;;;;;;;;;;;5151236;27;19934;-79
2022/06/20 05:50:39;;;;;;;;;;;;;;;;;;5147114;27;19923;-78
2022/06/20 05:53:05;;;;;;;;;;;;;;;;;;5147131;27;19923;-78
2022/06/20 05:55:31;;;;;;;;;;;;;;;;;;5147174;27;19924;-78
2022/06/20 05:57:57;;;;;;;;;;;;;;;;;;5150046;27;19972;-78
2022/06/20 06:00:23;;;;;;;;;;;;;;;;;;5153457;27;19927;-78
2022/06/20 06:02:49;;;;;;;;;;;;;;;;;;5146608;27;19923;-78
2022/06/20 06:05:14;;;;;;;;;;;;;;;;;;5146628;27;19927;-78
2022/06/20 06:07:40;;;;;;;;;;;;;;;;;;5147340;27;19923;-78
2022/06/20 06:10:06;;;;;;;;;;;;;;;;;;5157431;27;20001;-78
2022/06/20 06:12:32;;;;;;;;;;;;;;;;;;5146497;27;20374;-78
2022/06/20 06:14:58;;;;;;;;;;;;;;;;;;5146755;27;19986;-78
2022/06/20 06:17:24;;;;;;;;;;;;;;;;;;5146300;27;19991;-77
2022/06/20 06:19:51;;;;;;;;;;;;;;;;;;5157575;27;19974;-78
2022/06/20 06:22:17;;;;;;;;;;;;;;;;;;5127729;27;19930;-78
2022/06/20 06:24:43;;;;;;;;;;;;;;;;;;5127153;27;20018;-78
2022/06/20 06:27:12;;;;;;;;;;;;;;;;;;5145476;27;20413;-78
2022/06/20 06:29:38;;;;;;;;;;;;;;;;;;5140902;27;20012;-77
2022/06/20 06:32:04;;;;;;;;;;;;;;;;;;5141803;27;19923;-78
2022/06/20 06:34:30;;;;;;;;;;;;;;;;;;5145876;27;19939;-77
2022/06/20 06:36:56;;;;;;;;;;;;;;;;;;5157889;27;19920;-76
2022/06/20 06:39:22;;;;;;;;;;;;;;;;;;5145389;27;19923;-77
2022/06/20 06:41:48;;;;;;;;;;;;;;;;;;5145244;27;19927;-77
2022/06/20 06:44:14;;;;;;;;;;;;;;;;;;5145905;27;20611;-78
2022/06/20 06:46:41;;;;;;;;;;;;;;;;;;5145641;27;19957;-78
2022/06/20 06:49:07;;;;;;;;;;;;;;;;;;5128069;28;20399;-77
2022/06/20 06:51:33;;;;;;;;;;;;;;;;;;5145396;28;19938;-78
2022/06/20 06:53:59;;;;;;;;;;;;;;;;;;5144836;28;19928;-78
2022/06/20 06:56:27;;;;;;;;;;;;;;;;;;5146768;27;19926;-78
2022/06/20 06:58:53;;;;;;;;;;;;;;;;;;5127692;28;19980;-78
2022/06/20 07:01:19;;;;;;;;;;;;;;;;;;5145720;28;19927;-78
2022/06/20 07:03:45;;;;;;;;;;;;;;;;;;5144178;27;19939;-78
2022/06/20 07:06:11;;;;;;;;;;;;;;;;;;5138486;27;19924;-78
2022/06/20 07:08:37;;;;;;;;;;;;;;;;;;5147399;27;19992;-78
2022/06/20 07:11:03;;;;;;;;;;;;;;;;;;5146752;27;19923;-78
2022/06/20 07:13:29;;;;;;;;;;;;;;;;;;5145860;28;19939;-78
2022/06/20 07:15:55;;;;;;;;;;;;;;;;;;5145743;28;19966;-79
2022/06/20 07:18:21;;;;;;;;;;;;;;;;;;5145214;27;19929;-65
2022/06/20 07:20:47;;;;;;;;;;;;;;;;;;5151524;27;19974;-71
2022/06/20 07:23:13;;;;;;;;;;;;;;;;;;5154527;27;19928;-75
2022/06/20 07:25:39;;;;;;;;;;;;;;;;;;5133999;27;19927;-72
2022/06/20 07:28:05;;;;;;;;;;;;;;;;;;5137249;27;19931;-74
2022/06/20 07:30:31;;;;;;;;;;;;;;;;;;5122035;27;20437;-76
2022/06/20 07:32:57;;;;;;;;;;;;;;;;;;5149297;27;19923;-71
2022/06/20 07:35:23;;;;;;;;;;;;;;;;;;5149287;27;19927;-73
2022/06/20 07:37:49;;;;;;;;;;;;;;;;;;5153231;27;19927;-72
2022/06/20 07:40:15;;;;;;;;;;;;;;;;;;5139957;27;19931;-67
2022/06/20 07:42:41;;;;;;;;;;;;;;;;;;5151118;27;20395;-77
2022/06/20 07:45:07;;;;;;;;;;;;;;;;;;5149335;27;19931;-72
2022/06/20 07:47:33;;;;;;;;;;;;;;;;;;5142342;27;19950;-71
2022/06/20 07:49:59;;;;;;;;;;;;;;;;;;5148650;27;19927;-72
2022/06/20 07:52:25;;;;;;;;;;;;;;;;;;5164199;27;20429;-76
2022/06/20 07:54:51;;;;;;;;;;;;;;;;;;5158971;27;19919;-71
2022/06/20 07:57:17;;;;;;;;;;;;;;;;;;5148700;27;20794;-73
2022/06/20 07:59:43;;;;;;;;;;;;;;;;;;5150975;27;19924;-74
2022/06/20 08:02:09;;;;;;;;;;;;;;;;;;5152429;27;19931;-72
2022/06/20 08:04:35;;;;;;;;;;;;;;;;;;5129659;27;19923;-70
2022/06/20 08:07:01;;;;;;;;;;;;;;;;;;5155166;27;19930;-71
2022/06/20 08:09:27;;;;;;;;;;;;;;;;;;5149394;27;19923;-75
2022/06/20 08:11:53;;;;;;;;;;;;;;;;;;5146108;27;19969;-68
2022/06/20 08:14:19;;;;;;;;;;;;;;;;;;5146341;27;20323;-75
2022/06/20 08:16:45;;;;;;;;;;;;;;;;;;5154395;27;19929;-73
2022/06/20 08:19:11;;;;;;;;;;;;;;;;;;5159221;27;19931;-72
2022/06/20 08:21:37;;;;;;;;;;;;;;;;;;5148669;27;20018;-76
2022/06/20 08:24:03;;;;;;;;;;;;;;;;;;5155225;27;19930;-74
2022/06/20 08:26:29;;;;;;;;;;;;;;;;;;5150171;27;19927;-70
2022/06/20 08:28:55;;;;;;;;;;;;;;;;;;5157610;27;19962;-75
2022/06/20 08:31:21;;;;;;;;;;;;;;;;;;5148955;27;19931;-78
2022/06/20 08:33:47;;;;;;;;;;;;;;;;;;5150894;27;19929;-72
2022/06/20 08:36:13;;;;;;;;;;;;;;;;;;5129475;27;19923;-71
2022/06/20 08:38:39;;;;;;;;;;;;;;;;;;5162093;27;19991;-74
2022/06/20 08:41:05;;;;;;;;;;;;;;;;;;5138580;27;19931;-74
2022/06/20 08:43:31;;;;;;;;;;;;;;;;;;5140749;27;19974;-72
2022/06/20 08:45:57;;;;;;;;;;;;;;;;;;5154836;27;20524;-74
2022/06/20 08:48:23;;;;;;;;;;;;;;;;;;5154628;27;19982;-78
2022/06/20 08:50:49;;;;;;;;;;;;;;;;;;5142208;27;19941;-80
2022/06/20 08:53:15;;;;;;;;;;;;;;;;;;5146099;27;19931;-76
2022/06/20 08:55:41;;;;;;;;;;;;;;;;;;5135235;27;19930;-77
2022/06/20 08:58:07;;;;;;;;;;;;;;;;;;5147138;27;19944;-77
2022/06/20 09:00:33;;;;;;;;;;;;;;;;;;5143476;27;19959;-78
2022/06/20 09:02:59;;;;;;;;;;;;;;;;;;5149074;27;19950;-80
2022/06/20 09:05:25;;;;;;;;;;;;;;;;;;5149755;27;19923;-76
2022/06/20 09:07:51;;;;;;;;;;;;;;;;;;5146582;27;19981;-78
2022/06/20 09:10:17;;;;;;;;;;;;;;;;;;5138807;27;19923;-76
2022/06/20 09:12:43;;;;;;;;;;;;;;;;;;5147737;27;19923;-78
2022/06/20 09:15:09;;;;;;;;;;;;;;;;;;5149964;27;20351;-79
2022/06/20 09:17:35;;;;;;;;;;;;;;;;;;5148546;27;20009;-79
2022/06/20 09:20:01;;;;;;;;;;;;;;;;;;5142735;27;19924;-77
2022/06/20 09:22:27;;;;;;;;;;;;;;;;;;5128304;27;19999;-78
2022/06/20 09:24:53;;;;;;;;;;;;;;;;;;5146723;27;19927;-78
2022/06/20 09:27:19;;;;;;;;;;;;;;;;;;5135244;27;19931;-77
2022/06/20 09:29:45;;;;;;;;;;;;;;;;;;5142504;27;19924;-79
2022/06/20 09:32:11;;;;;;;;;;;;;;;;;;5148290;27;19923;-78
2022/06/20 09:34:37;;;;;;;;;;;;;;;;;;5146271;27;19935;-79
2022/06/20 09:37:03;;;;;;;;;;;;;;;;;;5147907;27;20006;-74
2022/06/20 09:39:29;;;;;;;;;;;;;;;;;;5154537;27;19927;-80
2022/06/20 09:41:55;;;;;;;;;;;;;;;;;;5145725;27;20028;-79
2022/06/20 09:44:21;;;;;;;;;;;;;;;;;;5151774;27;19970;-71
2022/06/20 09:46:47;;;;;;;;;;;;;;;;;;5142596;27;20009;-67
2022/06/20 09:49:13;;;;;;;;;;;;;;;;;;5143150;27;19923;-67
2022/06/20 09:51:39;;;;;;;;;;;;;;;;;;5142665;27;19927;-73
2022/06/20 09:54:05;;;;;;;;;;;;;;;;;;5142469;27;20328;-71
2022/06/20 09:56:31;;;;;;;;;;;;;;;;;;5121388;27;19982;-67
2022/06/20 09:58:57;;;;;;;;;;;;;;;;;;5148449;27;19923;-70
2022/06/20 10:01:23;;;;;;;;;;;;;;;;;;5161004;27;20359;-72
2022/06/20 10:03:49;;;;;;;;;;;;;;;;;;5150428;27;19927;-70
2022/06/20 10:06:15;;;;;;;;;;;;;;;;;;5149902;27;19931;-68
2022/06/20 10:08:41;;;;;;;;;;;;;;;;;;5139910;27;19923;-71
2022/06/20 10:11:07;;;;;;;;;;;;;;;;;;5157006;27;19984;-72
2022/06/20 10:13:34;;;;;;;;;;;;;;;;;;5154039;27;19923;-69
2022/06/20 10:16:00;;;;;;;;;;;;;;;;;;5137483;27;19984;-69
2022/06/20 10:18:26;;;;;;;;;;;;;;;;;;5143204;27;19928;-69
2022/06/20 10:20:52;;;;;;;;;;;;;;;;;;5127168;27;19923;-67
2022/06/20 10:23:18;;;;;;;;;;;;;;;;;;5145001;27;19923;-76
2022/06/20 10:25:44;;;;;;;;;;;;;;;;;;5146095;27;19927;-75
2022/06/20 10:28:10;;;;;;;;;;;;;;;;;;5146194;27;19934;-76
2022/06/20 10:30:36;;;;;;;;;;;;;;;;;;5155096;27;19996;-76
2022/06/20 10:33:02;;;;;;;;;;;;;;;;;;5128134;27;20347;-75
2022/06/20 10:35:28;;;;;;;;;;;;;;;;;;5145229;27;19923;-75
2022/06/20 10:37:54;;;;;;;;;;;;;;;;;;5144906;27;19927;-75
2022/06/20 10:40:20;;;;;;;;;;;;;;;;;;5128316;27;19919;-75
2022/06/20 10:42:46;;;;;;;;;;;;;;;;;;5149843;27;19924;-75
2022/06/20 10:45:12;;;;;;;;;;;;;;;;;;5145958;27;19924;-74
2022/06/20 10:47:38;;;;;;;;;;;;;;;;;;5145913;27;19923;-75
2022/06/20 10:50:04;;;;;;;;;;;;;;;;;;5147172;27;19924;-75
2022/06/20 10:52:30;;;;;;;;;;;;;;;;;;5146301;27;19923;-74
2022/06/20 10:54:56;;;;;;;;;;;;;;;;;;5145323;27;20267;-73
2022/06/20 10:57:22;;;;;;;;;;;;;;;;;;5146352;28;19931;-75
2022/06/20 10:59:48;;;;;;;;;;;;;;;;;;5148097;27;19923;-74
2022/06/20 11:02:14;;;;;;;;;;;;;;;;;;5146388;27;19954;-73
2022/06/20 11:04:40;;;;;;;;;;;;;;;;;;5145648;27;20354;-67
2022/06/20 11:07:06;;;;;;;;;;;;;;;;;;5154387;27;19924;-69
2022/06/20 11:09:33;;;;;;;;;;;;;;;;;;5152582;27;19969;-74
2022/06/20 11:11:59;;;;;;;;;;;;;;;;;;5153873;27;19935;-68
2022/06/20 11:14:25;;;;;;;;;;;;;;;;;;5140592;27;20013;-66
2022/06/20 11:16:51;;;;;;;;;;;;;;;;;;5149822;27;19934;-67
2022/06/20 11:19:17;;;;;;;;;;;;;;;;;;5139808;27;20960;-67
2022/06/20 11:21:43;;;;;;;;;;;;;;;;;;5126332;27;19924;-67
2022/06/20 11:24:09;;;;;;;;;;;;;;;;;;5128765;27;19931;-75
2022/06/20 11:26:35;;;;;;;;;;;;;;;;;;5126355;28;19924;-69
2022/06/20 11:29:01;;;;;;;;;;;;;;;;;;5148276;27;19949;-70
2022/06/20 11:31:27;;;;;;;;;;;;;;;;;;5148251;27;19923;-74
2022/06/20 11:34:02;;;;;;;;;;;;;;;;;;5149936;27;19924;-70
2022/06/20 11:36:28;;;;;;;;;;;;;;;;;;5144256;27;19938;-68
2022/06/20 11:38:54;;;;;;;;;;;;;;;;;;5147444;27;20358;-68
2022/06/20 11:41:20;;;;;;;;;;;;;;;;;;5157788;27;19928;-69
2022/06/20 11:43:46;;;;;;;;;;;;;;;;;;5149280;27;19923;-70
2022/06/20 11:46:12;;;;;;;;;;;;;;;;;;5144097;27;19927;-69
2022/06/20 11:48:38;;;;;;;;;;;;;;;;;;5126561;27;19952;-69
2022/06/20 11:51:04;;;;;;;;;;;;;;;;;;5161857;27;20347;-69
2022/06/20 11:53:30;;;;;;;;;;;;;;;;;;5149138;27;19953;-69
2022/06/20 11:55:56;;;;;;;;;;;;;;;;;;5156493;27;19967;-69
2022/06/20 11:58:22;;;;;;;;;;;;;;;;;;5149084;27;19924;-69
2022/06/20 12:00:48;;;;;;;;;;;;;;;;;;5160135;27;19995;-71
2022/06/20 12:03:14;;;;;;;;;;;;;;;;;;5151199;27;19942;-72
2022/06/20 12:05:40;;;;;;;;;;;;;;;;;;5151853;27;20019;-69
2022/06/20 12:08:06;;;;;;;;;;;;;;;;;;5144274;27;19923;-72
2022/06/20 12:10:32;;;;;;;;;;;;;;;;;;5148649;27;20014;-66
2022/06/20 12:12:58;;;;;;;;;;;;;;;;;;5146199;27;19964;-70
2022/06/20 12:15:24;;;;;;;;;;;;;;;;;;5147038;27;19935;-65
2022/06/20 12:17:50;;;;;;;;;;;;;;;;;;5155596;27;19919;-71
2022/06/20 12:23:21;;;;;;;;;;;;;;;;;;5131976;27;19980;-70
2022/06/20 12:25:46;;;;;;;;;;;;;;;;;;5151677;27;19924;-71
2022/06/20 12:28:18;;;;;;;;;;;;;;;;;;5134326;27;19944;-71
2022/06/20 12:30:44;;;;;;;;;;;;;;;;;;5156459;27;19927;-67
2022/06/20 12:33:10;;;;;;;;;;;;;;;;;;5149195;27;19927;-67
2022/06/20 12:35:36;;;;;;;;;;;;;;;;;;5149646;27;20310;-67
2022/06/20 12:38:02;;;;;;;;;;;;;;;;;;5149418;27;19924;-68
2022/06/20 12:40:28;;;;;;;;;;;;;;;;;;5155341;27;19924;-67
2022/06/20 12:42:54;;;;;;;;;;;;;;;;;;5138027;27;19979;-68
2022/06/20 12:45:20;;;;;;;;;;;;;;;;;;5147004;27;19927;-67
2022/06/20 12:47:46;;;;;;;;;;;;;;;;;;5147641;27;19935;-67
2022/06/20 12:50:12;;;;;;;;;;;;;;;;;;5146977;27;19924;-66
2022/06/20 12:52:38;;;;;;;;;;;;;;;;;;5128522;27;20343;-66
2022/06/20 12:55:04;;;;;;;;;;;;;;;;;;5154359;27;19930;-67
2022/06/20 12:57:30;;;;;;;;;;;;;;;;;;5149841;27;19972;-67
2022/06/20 12:59:56;;;;;;;;;;;;;;;;;;5147429;27;19926;-67
2022/06/20 13:02:23;;;;;;;;;;;;;;;;;;5147303;27;19923;-66
2022/06/20 13:04:49;;;;;;;;;;;;;;;;;;5145421;27;20056;-67
2022/06/20 13:07:15;;;;;;;;;;;;;;;;;;5128499;27;19942;-67
2022/06/20 13:09:41;;;;;;;;;;;;;;;;;;5141597;27;19919;-68
2022/06/20 13:12:07;;;;;;;;;;;;;;;;;;5128437;27;19928;-67
2022/06/20 13:14:33;;;;;;;;;;;;;;;;;;5146777;27;19928;-67
2022/06/20 13:16:59;;;;;;;;;;;;;;;;;;5149715;27;19928;-67
2022/06/20 13:19:25;;;;;;;;;;;;;;;;;;5147321;27;19919;-67
2022/06/20 13:21:51;;;;;;;;;;;;;;;;;;5146219;27;19923;-67
2022/06/20 13:24:17;;;;;;;;;;;;;;;;;;5146960;27;19923;-67
2022/06/20 13:26:43;;;;;;;;;;;;;;;;;;5144725;27;19928;-68
2022/06/20 13:29:09;;;;;;;;;;;;;;;;;;5149019;27;19942;-68
2022/06/20 13:31:35;;;;;;;;;;;;;;;;;;5148634;27;19931;-67
2022/06/20 13:34:01;;;;;;;;;;;;;;;;;;5146364;27;19990;-67
2022/06/20 13:36:27;;;;;;;;;;;;;;;;;;5150073;27;19923;-67
2022/06/20 13:38:53;;;;;;;;;;;;;;;;;;5145413;27;19945;-67
2022/06/20 13:41:19;;;;;;;;;;;;;;;;;;5128090;27;19923;-67
2022/06/20 13:43:45;;;;;;;;;;;;;;;;;;5151873;27;19929;-67
2022/06/20 13:46:11;;;;;;;;;;;;;;;;;;5145100;27;19931;-68
2022/06/20 13:48:37;;;;;;;;;;;;;;;;;;5143250;27;19931;-67
2022/06/20 13:51:03;;;;;;;;;;;;;;;;;;5146043;27;19988;-68
2022/06/20 13:53:29;;;;;;;;;;;;;;;;;;5148519;27;20402;-67
2022/06/20 13:55:55;;;;;;;;;;;;;;;;;;5142164;27;20010;-66
2022/06/20 13:58:21;;;;;;;;;;;;;;;;;;5147338;27;19976;-67
2022/06/20 14:00:47;;;;;;;;;;;;;;;;;;5147979;27;19927;-67
2022/06/20 14:03:14;;;;;;;;;;;;;;;;;;5146155;27;20019;-67
2022/06/20 14:05:39;;;;;;;;;;;;;;;;;;5146149;27;19935;-66
2022/06/20 14:08:05;;;;;;;;;;;;;;;;;;5145879;27;19923;-63
2022/06/20 14:10:31;;;;;;;;;;;;;;;;;;5129126;27;19931;-68
2022/06/20 14:12:58;;;;;;;;;;;;;;;;;;5145358;27;19923;-67
2022/06/20 14:15:24;;;;;;;;;;;;;;;;;;5149194;27;20022;-67
2022/06/20 14:17:50;;;;;;;;;;;;;;;;;;5147181;27;20300;-68
2022/06/20 14:20:16;;;;;;;;;;;;;;;;;;5144699;27;20204;-68
2022/06/20 14:22:42;;;;;;;;;;;;;;;;;;5126655;27;20184;-68
2022/06/20 14:25:08;;;;;;;;;;;;;;;;;;5153324;27;19928;-68
2022/06/20 14:27:35;;;;;;;;;;;;;;;;;;5145677;27;19924;-68
2022/06/20 14:30:01;;;;;;;;;;;;;;;;;;5145368;27;20015;-69
2022/06/20 14:32:28;;;;;;;;;;;;;;;;;;5144624;27;19931;-69
2022/06/20 14:37:39;;;;;;;;;;;;;;;;;;5146672;27;19968;-68
2022/06/20 14:40:05;;;;;;;;;;;;;;;;;;5141341;27;19923;-69
2022/06/20 14:42:31;;;;;;;;;;;;;;;;;;5129988;27;19931;-68
2022/06/20 14:44:57;;;;;;;;;;;;;;;;;;5131311;27;19931;-69
2022/06/20 14:47:23;;;;;;;;;;;;;;;;;;5147482;27;19931;-68
2022/06/20 14:49:49;;;;;;;;;;;;;;;;;;5154373;27;19927;-68
2022/06/20 14:52:15;;;;;;;;;;;;;;;;;;5142691;27;19930;-67
2022/06/20 14:54:41;;;;;;;;;;;;;;;;;;5151509;27;20002;-69
2022/06/20 14:57:07;;;;;;;;;;;;;;;;;;5120947;27;19938;-68
2022/06/20 14:59:33;;;;;;;;;;;;;;;;;;5141242;27;20498;-75
2022/06/20 15:01:59;;;;;;;;;;;;;;;;;;5127356;28;19930;-75
2022/06/20 15:04:25;;;;;;;;;;;;;;;;;;5140491;27;19930;-66
2022/06/20 15:06:51;;;;;;;;;;;;;;;;;;5145499;27;19967;-67
2022/06/20 15:09:17;;;;;;;;;;;;;;;;;;5138528;27;19935;-65
2022/06/20 15:11:43;;;;;;;;;;;;;;;;;;5145551;27;19987;-65
2022/06/20 15:14:09;;;;;;;;;;;;;;;;;;5145324;27;19927;-66
2022/06/20 15:16:35;;;;;;;;;;;;;;;;;;5149427;27;19919;-65
2022/06/20 15:19:01;;;;;;;;;;;;;;;;;;5144008;27;19934;-65
2022/06/20 15:21:27;;;;;;;;;;;;;;;;;;5145451;27;20374;-67
2022/06/20 15:23:53;;;;;;;;;;;;;;;;;;5145408;28;20019;-65
2022/06/20 15:26:19;;;;;;;;;;;;;;;;;;5145927;27;20318;-66
2022/06/20 15:28:45;;;;;;;;;;;;;;;;;;5145326;28;20382;-65
2022/06/20 15:31:11;;;;;;;;;;;;;;;;;;5141022;27;20264;-66
2022/06/20 15:33:37;;;;;;;;;;;;;;;;;;5135983;27;19931;-71
2022/06/20 15:36:03;;;;;;;;;;;;;;;;;;5150420;27;19944;-68
2022/06/20 15:38:29;;;;;;;;;;;;;;;;;;5143818;27;19924;-67
2022/06/20 15:40:55;;;;;;;;;;;;;;;;;;5144467;27;20001;-67
2022/06/20 15:43:21;;;;;;;;;;;;;;;;;;5140747;27;19969;-67
2022/06/20 15:45:47;;;;;;;;;;;;;;;;;;5124935;27;19927;-66
2022/06/20 15:48:13;;;;;;;;;;;;;;;;;;5141841;27;19972;-66
2022/06/20 15:50:39;;;;;;;;;;;;;;;;;;5144517;27;19935;-69
2022/06/20 15:53:05;;;;;;;;;;;;;;;;;;5147170;27;19931;-72
2022/06/20 15:55:32;;;;;;;;;;;;;;;;;;5151162;27;19920;-73
2022/06/20 15:58:00;;;;;;;;;;;;;;;;;;5137795;27;19923;-68
2022/06/20 16:00:26;;;;;;;;;;;;;;;;;;5149053;27;20436;-68
2022/06/20 16:02:52;;;;;;;;;;;;;;;;;;5141302;27;20077;-68
2022/06/20 16:05:18;;;;;;;;;;;;;;;;;;5142871;27;20173;-69
2022/06/20 16:07:44;;;;;;;;;;;;;;;;;;5147859;27;19923;-68
2022/06/20 16:10:12;;;;;;;;;;;;;;;;;;5144328;27;19931;-74
2022/06/20 16:12:38;;;;;;;;;;;;;;;;;;5145450;27;19924;-72
2022/06/20 16:15:04;;;;;;;;;;;;;;;;;;5122886;27;19987;-75
2022/06/20 16:17:30;;;;;;;;;;;;;;;;;;5146343;27;19927;-71
2022/06/20 16:19:56;;;;;;;;;;;;;;;;;;5147424;27;19924;-71
2022/06/20 16:22:23;;;;;;;;;;;;;;;;;;5151983;27;19930;-75
2022/06/20 16:24:49;;;;;;;;;;;;;;;;;;5152741;27;19930;-72
2022/06/20 16:27:15;;;;;;;;;;;;;;;;;;5151021;27;19958;-73
2022/06/20 16:29:41;;;;;;;;;;;;;;;;;;5148633;27;19958;-72
2022/06/20 16:32:07;;;;;;;;;;;;;;;;;;5148817;27;20012;-72
2022/06/20 16:34:33;;;;;;;;;;;;;;;;;;5151432;27;19924;-72
2022/06/20 16:36:59;;;;;;;;;;;;;;;;;;5148780;27;19927;-73
2022/06/20 16:39:29;;;;;;;;;;;;;;;;;;5155375;27;19980;-72
2022/06/20 16:41:55;;;;;;;;;;;;;;;;;;5151807;27;19927;-72
2022/06/20 16:44:21;;;;;;;;;;;;;;;;;;5152774;27;19976;-72
2022/06/20 16:46:47;;;;;;;;;;;;;;;;;;5151550;27;19927;-73
2022/06/20 16:49:13;;;;;;;;;;;;;;;;;;5155405;27;20378;-72
2022/06/20 16:51:39;;;;;;;;;;;;;;;;;;5144929;27;19923;-72
2022/06/20 16:54:05;;;;;;;;;;;;;;;;;;5153445;27;19923;-72
2022/06/20 16:56:31;;;;;;;;;;;;;;;;;;5151926;27;19923;-72